Terminal Aerodrome Forecast
Issued by NWS Sterling, VA

Current Version | Previous Version | Graphics & Text | Print | Product List | Glossary On
Versions: 1 2 3 4 5 6 7 8 9 10 11 12 13 14 15 16 17 18 19 20 21 22 23 24 25 26
685
FTUS41 KLWX 162340
TAFDCA
TAF
KDCA 162340Z 1700/1724 00000KT P6SM FEW045 SCT200
     FM171200 05004KT P6SM BKN030 BKN040
     FM171400 05005KT P6SM BKN035 BKN040
     FM171700 07005KT P6SM FEW045 SCT100=

USA.gov is the U.S. government's official web portal to all federal, state and local government web resources and services.